GLD1043 SBSP-SBCT
Flight info
| Callsign | GLD1043 |
|---|---|
| Flight time | 0h 40m |
| Altitude | 28000 |
| Route | SOVSI UZ85 RAXIT |
| Aircraft | B738/M-SDE2E3FGHIRWXY/LB1 |
Departure
| Time | 2026-05-04 22:48 |
|---|---|
| Airport | Congonhas–Deputado Freitas Nobre Airport (SBSP) |
Arrival
| Time | 2026-05-04 23:28 |
|---|---|
| Airport | Curitiba-Afonso Pena International Airport (SBCT) |
| Time | Latitude | Longitude | Altitude | Speed | Heading |
|---|---|---|---|---|---|
| 2026-05-04 22:30 | -23.62598 | -46.65904 | 2600 ft | 0 kts | 237° |
| 2026-05-04 22:37 | -23.62597 | -46.65901 | 2600 ft | 3 kts | 237° |
| 2026-05-04 22:38 | -23.62585 | -46.65879 | 2600 ft | 3 kts | 251° |
| 2026-05-04 22:38 | -23.62582 | -46.65862 | 2600 ft | 3 kts | 320° |
| 2026-05-04 22:38 | -23.62600 | -46.65849 | 2600 ft | 3 kts | 327° |
| 2026-05-04 22:38 | -23.62603 | -46.65847 | 2600 ft | 0 kts | 327° |
| 2026-05-04 22:41 | -23.62597 | -46.65849 | 2600 ft | 2 kts | 338° |
| 2026-05-04 22:42 | -23.62564 | -46.65849 | 2600 ft | 7 kts | 3° |
| 2026-05-04 22:42 | -23.62519 | -46.65857 | 2601 ft | 7 kts | 336° |
| 2026-05-04 22:42 | -23.62473 | -46.65888 | 2600 ft | 8 kts | 327° |
| 2026-05-04 22:42 | -23.62428 | -46.65919 | 2600 ft | 7 kts | 327° |
| 2026-05-04 22:43 | -23.62390 | -46.65946 | 2600 ft | 6 kts | 328° |
| 2026-05-04 22:43 | -23.62350 | -46.65973 | 2599 ft | 8 kts | 328° |
| 2026-05-04 22:43 | -23.62303 | -46.66006 | 2599 ft | 7 kts | 327° |
| 2026-05-04 22:43 | -23.62264 | -46.66032 | 2599 ft | 6 kts | 329° |
| 2026-05-04 22:44 | -23.62227 | -46.66051 | 2599 ft | 6 kts | 334° |
| 2026-05-04 22:44 | -23.62191 | -46.66075 | 2598 ft | 6 kts | 327° |
| 2026-05-04 22:44 | -23.62148 | -46.66105 | 2593 ft | 8 kts | 327° |
| 2026-05-04 22:44 | -23.62131 | -46.66117 | 2591 ft | 0 kts | 327° |
| 2026-05-04 22:45 | -23.62130 | -46.66117 | 2591 ft | 1 kts | 327° |
| 2026-05-04 22:45 | -23.62090 | -46.66138 | 2596 ft | 10 kts | 349° |
| 2026-05-04 22:46 | -23.62029 | -46.66118 | 2591 ft | 10 kts | 41° |
| 2026-05-04 22:46 | -23.62036 | -46.66083 | 2595 ft | 5 kts | 149° |
| 2026-05-04 22:46 | -23.62046 | -46.66076 | 2595 ft | 0 kts | 147° |
| 2026-05-04 22:47 | -23.62245 | -46.65938 | 2599 ft | 76 kts | 148° |
| 2026-05-04 22:48 | -23.62921 | -46.65470 | 2609 ft | 151 kts | 147° |
| 2026-05-04 22:48 | -23.63861 | -46.64790 | 3297 ft | 162 kts | 146° |
| 2026-05-04 22:48 | -23.64873 | -46.64072 | 3921 ft | 183 kts | 152° |
| 2026-05-04 22:48 | -23.66132 | -46.63867 | 4547 ft | 195 kts | 190° |
| 2026-05-04 22:49 | -23.67563 | -46.64128 | 4797 ft | 221 kts | 190° |
| 2026-05-04 22:49 | -23.69159 | -46.64349 | 4951 ft | 244 kts | 188° |
| 2026-05-04 22:49 | -23.70944 | -46.64535 | 5188 ft | 272 kts | 187° |
| 2026-05-04 22:49 | -23.72873 | -46.64701 | 5897 ft | 281 kts | 187° |
| 2026-05-04 22:50 | -23.74805 | -46.64971 | 6863 ft | 279 kts | 201° |
| 2026-05-04 22:50 | -23.76433 | -46.66042 | 7270 ft | 271 kts | 231° |
| 2026-05-04 22:50 | -23.77377 | -46.67793 | 7467 ft | 268 kts | 253° |
| 2026-05-04 22:50 | -23.77613 | -46.69764 | 7487 ft | 266 kts | 275° |
| 2026-05-04 22:51 | -23.77683 | -46.71778 | 7470 ft | 270 kts | 252° |
| 2026-05-04 22:51 | -23.78614 | -46.73558 | 7494 ft | 272 kts | 238° |
| 2026-05-04 22:51 | -23.79717 | -46.75254 | 7621 ft | 277 kts | 236° |
| 2026-05-04 22:51 | -23.80845 | -46.76971 | 8479 ft | 277 kts | 236° |
| 2026-05-04 22:52 | -23.81953 | -46.78694 | 9469 ft | 277 kts | 237° |
| 2026-05-04 22:52 | -23.83053 | -46.80443 | 10330 ft | 281 kts | 237° |
| 2026-05-04 22:52 | -23.84179 | -46.82267 | 10755 ft | 302 kts | 237° |
| 2026-05-04 22:52 | -23.85397 | -46.84259 | 10967 ft | 327 kts | 237° |
| 2026-05-04 22:53 | -23.86677 | -46.86361 | 11542 ft | 336 kts | 237° |
| 2026-05-04 22:53 | -23.87937 | -46.88525 | 12306 ft | 339 kts | 242° |
| 2026-05-04 22:53 | -23.88940 | -46.90813 | 13115 ft | 341 kts | 247° |
| 2026-05-04 22:53 | -23.89844 | -46.93189 | 13897 ft | 344 kts | 248° |
| 2026-05-04 22:54 | -23.90654 | -46.95655 | 14562 ft | 348 kts | 257° |
| 2026-05-04 22:54 | -23.90746 | -46.98308 | 15226 ft | 353 kts | 277° |
| 2026-05-04 22:54 | -23.90263 | -47.00946 | 15953 ft | 355 kts | 282° |
| 2026-05-04 22:54 | -23.89660 | -47.03581 | 16600 ft | 360 kts | 283° |
| 2026-05-04 22:55 | -23.89026 | -47.06245 | 17215 ft | 365 kts | 283° |
| 2026-05-04 22:55 | -23.88379 | -47.08938 | 17847 ft | 368 kts | 283° |
| 2026-05-04 22:55 | -23.87722 | -47.11659 | 18480 ft | 372 kts | 283° |
| 2026-05-04 22:55 | -23.87058 | -47.14405 | 19025 ft | 375 kts | 283° |
| 2026-05-04 22:56 | -23.86393 | -47.17137 | 19585 ft | 377 kts | 283° |
| 2026-05-04 22:56 | -23.85713 | -47.19911 | 20174 ft | 379 kts | 283° |
| 2026-05-04 22:56 | -23.85022 | -47.22705 | 20736 ft | 382 kts | 283° |
| 2026-05-04 22:56 | -23.84320 | -47.25519 | 21288 ft | 385 kts | 283° |
| 2026-05-04 22:57 | -23.83644 | -47.28368 | 21806 ft | 387 kts | 278° |
| 2026-05-04 22:57 | -23.83623 | -47.31289 | 22429 ft | 384 kts | 258° |
| 2026-05-04 22:57 | -23.84516 | -47.33992 | 23220 ft | 378 kts | 239° |
| 2026-05-04 22:57 | -23.86187 | -47.36177 | 24002 ft | 375 kts | 221° |
| 2026-05-04 22:58 | -23.88432 | -47.37624 | 24652 ft | 376 kts | 205° |
| 2026-05-04 22:58 | -23.90884 | -47.38614 | 25259 ft | 376 kts | 202° |
| 2026-05-04 22:58 | -23.93364 | -47.39539 | 25849 ft | 376 kts | 202° |
| 2026-05-04 22:58 | -23.95835 | -47.40436 | 26447 ft | 374 kts | 202° |
| 2026-05-04 22:59 | -23.98246 | -47.41458 | 27097 ft | 369 kts | 206° |
| 2026-05-04 22:59 | -24.00600 | -47.42553 | 27733 ft | 366 kts | 207° |
| 2026-05-04 22:59 | -24.02942 | -47.43659 | 28176 ft | 367 kts | 207° |
| 2026-05-04 22:59 | -24.05259 | -47.44750 | 28149 ft | 365 kts | 207° |
| 2026-05-04 23:00 | -24.09934 | -47.46936 | 28172 ft | 366 kts | 207° |
| 2026-05-04 23:00 | -24.14453 | -47.49715 | 28192 ft | 382 kts | 216° |
| 2026-05-04 23:01 | -24.18229 | -47.52436 | 28183 ft | 397 kts | 216° |
| 2026-05-04 23:01 | -24.22853 | -47.55724 | 28151 ft | 391 kts | 215° |
| 2026-05-04 23:02 | -24.27462 | -47.58938 | 28162 ft | 396 kts | 215° |
| 2026-05-04 23:02 | -24.32102 | -47.62156 | 28158 ft | 396 kts | 215° |
| 2026-05-04 23:03 | -24.36748 | -47.65379 | 28165 ft | 394 kts | 215° |
| 2026-05-04 23:03 | -24.41448 | -47.68647 | 28161 ft | 407 kts | 215° |
| 2026-05-04 23:04 | -24.45806 | -47.72588 | 28155 ft | 407 kts | 225° |
| 2026-05-04 23:04 | -24.49879 | -47.76887 | 28148 ft | 406 kts | 226° |
| 2026-05-04 23:05 | -24.53957 | -47.81157 | 28151 ft | 404 kts | 225° |
| 2026-05-04 23:05 | -24.58053 | -47.85376 | 28155 ft | 403 kts | 225° |
| 2026-05-04 23:06 | -24.62162 | -47.89585 | 27850 ft | 404 kts | 225° |
| 2026-05-04 23:06 | -24.64201 | -47.91670 | 27630 ft | 396 kts | 225° |
| 2026-05-04 23:06 | -24.66224 | -47.93741 | 27257 ft | 398 kts | 225° |
| 2026-05-04 23:07 | -24.68243 | -47.95810 | 26867 ft | 396 kts | 225° |
| 2026-05-04 23:07 | -24.70257 | -47.97875 | 26420 ft | 396 kts | 225° |
| 2026-05-04 23:07 | -24.72266 | -47.99936 | 25966 ft | 394 kts | 225° |
| 2026-05-04 23:07 | -24.74232 | -48.01952 | 25504 ft | 385 kts | 225° |
| 2026-05-04 23:08 | -24.76157 | -48.03926 | 25074 ft | 372 kts | 224° |
| 2026-05-04 23:08 | -24.78020 | -48.05839 | 24657 ft | 361 kts | 224° |
| 2026-05-04 23:08 | -24.79834 | -48.07703 | 24232 ft | 351 kts | 224° |
| 2026-05-04 23:08 | -24.81595 | -48.09513 | 23847 ft | 343 kts | 224° |
| 2026-05-04 23:09 | -24.83336 | -48.11305 | 23420 ft | 342 kts | 224° |
| 2026-05-04 23:09 | -24.85064 | -48.13085 | 23021 ft | 339 kts | 224° |
| 2026-05-04 23:09 | -24.86785 | -48.14856 | 22630 ft | 337 kts | 224° |
| 2026-05-04 23:09 | -24.88495 | -48.16618 | 22238 ft | 335 kts | 224° |
| 2026-05-04 23:10 | -24.90190 | -48.18364 | 21864 ft | 333 kts | 224° |
| 2026-05-04 23:10 | -24.91877 | -48.20104 | 21531 ft | 330 kts | 224° |
| 2026-05-04 23:10 | -24.93556 | -48.21834 | 21129 ft | 329 kts | 224° |
| 2026-05-04 23:10 | -24.95223 | -48.23553 | 20783 ft | 327 kts | 224° |
| 2026-05-04 23:11 | -24.96884 | -48.25267 | 20415 ft | 326 kts | 224° |
| 2026-05-04 23:11 | -24.98369 | -48.27126 | 20038 ft | 323 kts | 240° |
| 2026-05-04 23:11 | -24.99396 | -48.29318 | 19695 ft | 321 kts | 244° |
| 2026-05-04 23:11 | -25.00359 | -48.31534 | 19312 ft | 320 kts | 244° |
| 2026-05-04 23:12 | -25.01320 | -48.33748 | 18932 ft | 320 kts | 244° |
| 2026-05-04 23:12 | -25.02278 | -48.35930 | 18575 ft | 319 kts | 244° |
| 2026-05-04 23:12 | -25.03256 | -48.38133 | 18160 ft | 319 kts | 244° |
| 2026-05-04 23:12 | -25.04227 | -48.40307 | 17761 ft | 313 kts | 244° |
| 2026-05-04 23:13 | -25.05186 | -48.42448 | 17395 ft | 311 kts | 244° |
| 2026-05-04 23:13 | -25.06142 | -48.44585 | 17036 ft | 310 kts | 244° |
| 2026-05-04 23:13 | -25.07096 | -48.46715 | 16676 ft | 309 kts | 244° |
| 2026-05-04 23:13 | -25.08044 | -48.48832 | 16324 ft | 307 kts | 244° |
| 2026-05-04 23:14 | -25.08989 | -48.50942 | 15962 ft | 306 kts | 244° |
| 2026-05-04 23:14 | -25.09928 | -48.53040 | 15619 ft | 304 kts | 244° |
| 2026-05-04 23:14 | -25.10824 | -48.55045 | 15293 ft | 303 kts | 244° |
| 2026-05-04 23:14 | -25.11755 | -48.57128 | 14958 ft | 302 kts | 244° |
| 2026-05-04 23:15 | -25.12685 | -48.59209 | 14603 ft | 302 kts | 244° |
| 2026-05-04 23:15 | -25.13621 | -48.61305 | 14244 ft | 307 kts | 244° |
| 2026-05-04 23:15 | -25.14571 | -48.63434 | 13854 ft | 312 kts | 245° |
| 2026-05-04 23:15 | -25.15534 | -48.65592 | 13470 ft | 313 kts | 245° |
| 2026-05-04 23:16 | -25.16492 | -48.67752 | 13098 ft | 312 kts | 245° |
| 2026-05-04 23:16 | -25.17428 | -48.69868 | 12724 ft | 310 kts | 245° |
| 2026-05-04 23:16 | -25.18370 | -48.71999 | 12363 ft | 308 kts | 245° |
| 2026-05-04 23:16 | -25.19308 | -48.74121 | 12022 ft | 306 kts | 245° |
| 2026-05-04 23:17 | -25.20223 | -48.76237 | 11679 ft | 304 kts | 248° |
| 2026-05-04 23:17 | -25.20917 | -48.78415 | 11434 ft | 298 kts | 253° |
| 2026-05-04 23:17 | -25.21503 | -48.80596 | 11188 ft | 294 kts | 254° |
| 2026-05-04 23:17 | -25.22068 | -48.82765 | 10948 ft | 294 kts | 255° |
| 2026-05-04 23:18 | -25.22638 | -48.84935 | 10731 ft | 294 kts | 254° |
| 2026-05-04 23:18 | -25.23218 | -48.87110 | 10498 ft | 296 kts | 254° |
| 2026-05-04 23:18 | -25.23795 | -48.89246 | 10264 ft | 291 kts | 254° |
| 2026-05-04 23:18 | -25.24367 | -48.91344 | 10009 ft | 279 kts | 254° |
| 2026-05-04 23:19 | -25.24922 | -48.93364 | 9739 ft | 271 kts | 254° |
| 2026-05-04 23:19 | -25.25467 | -48.95347 | 9488 ft | 269 kts | 254° |
| 2026-05-04 23:19 | -25.26007 | -48.97312 | 9240 ft | 266 kts | 254° |
| 2026-05-04 23:19 | -25.26543 | -48.99256 | 8987 ft | 263 kts | 254° |
| 2026-05-04 23:20 | -25.27073 | -49.01180 | 8738 ft | 260 kts | 255° |
| 2026-05-04 23:20 | -25.27599 | -49.03089 | 8550 ft | 259 kts | 255° |
| 2026-05-04 23:20 | -25.28122 | -49.04988 | 8495 ft | 258 kts | 255° |
| 2026-05-04 23:20 | -25.28644 | -49.06882 | 8483 ft | 258 kts | 255° |
| 2026-05-04 23:21 | -25.29169 | -49.08793 | 8468 ft | 261 kts | 255° |
| 2026-05-04 23:21 | -25.29698 | -49.10716 | 8476 ft | 262 kts | 255° |
| 2026-05-04 23:21 | -25.30227 | -49.12639 | 8477 ft | 262 kts | 255° |
| 2026-05-04 23:21 | -25.30756 | -49.14564 | 8477 ft | 261 kts | 255° |
| 2026-05-04 23:22 | -25.31285 | -49.16486 | 8503 ft | 261 kts | 255° |
| 2026-05-04 23:22 | -25.31820 | -49.18437 | 8051 ft | 268 kts | 255° |
| 2026-05-04 23:22 | -25.32354 | -49.20382 | 7740 ft | 268 kts | 255° |
| 2026-05-04 23:22 | -25.32886 | -49.22320 | 7595 ft | 260 kts | 255° |
| 2026-05-04 23:23 | -25.33654 | -49.24106 | 7376 ft | 261 kts | 233° |
| 2026-05-04 23:23 | -25.34931 | -49.25535 | 7129 ft | 260 kts | 227° |
| 2026-05-04 23:23 | -25.36217 | -49.26885 | 7041 ft | 247 kts | 227° |
| 2026-05-04 23:23 | -25.37418 | -49.28151 | 6918 ft | 229 kts | 227° |
| 2026-05-04 23:24 | -25.38573 | -49.29362 | 6441 ft | 227 kts | 224° |
| 2026-05-04 23:24 | -25.39982 | -49.30100 | 6092 ft | 227 kts | 191° |
| 2026-05-04 23:24 | -25.41506 | -49.29878 | 5791 ft | 225 kts | 159° |
| 2026-05-04 23:24 | -25.42730 | -49.28871 | 5564 ft | 216 kts | 136° |
| 2026-05-04 23:25 | -25.43766 | -49.27718 | 5281 ft | 205 kts | 136° |
| 2026-05-04 23:25 | -25.44736 | -49.26640 | 5033 ft | 190 kts | 135° |
| 2026-05-04 23:25 | -25.45619 | -49.25652 | 4810 ft | 173 kts | 135° |
| 2026-05-04 23:25 | -25.46430 | -49.24745 | 4593 ft | 158 kts | 135° |
| 2026-05-04 23:26 | -25.47213 | -49.23870 | 4382 ft | 160 kts | 135° |
| 2026-05-04 23:26 | -25.47990 | -49.23002 | 4177 ft | 157 kts | 135° |
| 2026-05-04 23:26 | -25.48745 | -49.22158 | 3968 ft | 151 kts | 134° |
| 2026-05-04 23:26 | -25.49477 | -49.21341 | 3791 ft | 148 kts | 134° |
| 2026-05-04 23:27 | -25.50203 | -49.20529 | 3594 ft | 148 kts | 134° |
| 2026-05-04 23:27 | -25.50927 | -49.19720 | 3394 ft | 145 kts | 133° |
| 2026-05-04 23:27 | -25.51615 | -49.18952 | 3188 ft | 141 kts | 134° |
| 2026-05-04 23:27 | -25.52296 | -49.18194 | 3011 ft | 135 kts | 133° |
| 2026-05-04 23:28 | -25.52860 | -49.17563 | 2987 ft | 86 kts | 134° |
| 2026-05-04 23:28 | -25.53130 | -49.17259 | 2992 ft | 24 kts | 134° |
| 2026-05-04 23:28 | -25.53171 | -49.17212 | 2993 ft | 10 kts | 134° |
| 2026-05-04 23:28 | -25.53230 | -49.17146 | 2993 ft | 14 kts | 135° |
| 2026-05-04 23:29 | -25.53313 | -49.17055 | 2990 ft | 19 kts | 135° |
| 2026-05-04 23:29 | -25.53412 | -49.16945 | 2991 ft | 19 kts | 134° |
| 2026-05-04 23:29 | -25.53507 | -49.16837 | 2989 ft | 19 kts | 134° |
| 2026-05-04 23:29 | -25.53588 | -49.16770 | 2990 ft | 12 kts | 179° |
| 2026-05-04 23:30 | -25.53620 | -49.16829 | 2989 ft | 10 kts | 275° |
| 2026-05-04 23:30 | -25.53612 | -49.16909 | 2989 ft | 10 kts | 275° |
| 2026-05-04 23:30 | -25.53613 | -49.16961 | 2989 ft | 6 kts | 259° |
| 2026-05-04 23:30 | -25.53636 | -49.17010 | 2989 ft | 8 kts | 250° |
| 2026-05-04 23:31 | -25.53621 | -49.17053 | 2989 ft | 5 kts | 308° |
| 2026-05-04 23:31 | -25.53632 | -49.17082 | 2992 ft | 4 kts | 218° |
| 2026-05-04 23:31 | -25.53658 | -49.17101 | 2992 ft | 4 kts | 213° |
| 2026-05-04 23:31 | -25.53666 | -49.17107 | 2992 ft | 0 kts | 213° |